Saint Francis River (Missouri), Wappapello (07039500)

StateMissouriLatestGood (1780 cfs)
RiverSaint Francis RiverRatingObservedEstimated
Updated2020-08-07 12:00 (52 minutes ago)Flood - The river is flooding. Obstacles can be treacherous or deadly. The river should be avoided at this stage for casual trips and definitely for the inexperienced. Trips should be attempted only with protective gear and equipment.Flood(none)7958
Discharge1780 cfs (median: 186 cfs)High - The river is high and potentially dangerous, especially for the young and / or inexperienced. Normal stream obstacles are sometimes difficult to navigate. Extended distances can be attempted, but canoe travel may not be advisable.High(none)2240
Height12.39 feetGood - Conditions are ideal for a canoe or kayak. Boats typically will drag on fewer than one-quarter of riffles, if at all, and portages are unnecessary or rare. Normal float lengths can be attempted without a problem.Good(none)676
TrendRising (rising over 24 hours)Low - River is low but can still be floated. Some riffles are okay but most come with significant dragging and might need a portage. Float lengths should be reduced to accommodate low flow, dragging, and portages.Low(none)255
USGSExternal icon USGS Site (External icon Google Maps)Poor - River is too low to float comfortably. Most or all riffles will drag or must be portaged and some obstacles (such as slick shelf rock) cause undue problems. Avoid the river at this stage for casual paddling trips.Poor(none)40

Trending Data

Plot Image

Trips for Saint Francis River (Missouri), Wappapello (07039500)

DateStartEndDistanceConditionDischargeHeightFishingDetails

A total of 0 rows are displayed.

Condition Descriptions

Fishing Conditions

Fish Species

Notes

Classic Trip List

The classic River Trips application is still available for use. It is updated with the new system using a data retrofit. It is no longer maintained. The original River Trips application is no longer updated (as of 1 Dec 2016) but can be checked for errors or for the condition of the data before it was converted to the new system.

Gauge Data Table

ObservationHeightDischargeMaximum
Discharge
Minimum
Discharge
Mean
Discharge
P05P10P20P25P50
(Median)
P75P80P90P95
2020-08-07 12:00 12.39 1780 4420 (1945) 19 (1978) 398 34 40 45 72 186 340 478 1040 1800
2020-08-07 11:00 12.30 1760 4420 (1945) 19 (1978) 398 34 40 45 72 186 340 478 1040 1800
2020-08-07 10:00 12.16 1720 4420 (1945) 19 (1978) 398 34 40 45 72 186 340 478 1040 1800
2020-08-07 09:00 12.04 1680 4420 (1945) 19 (1978) 398 34 40 45 72 186 340 478 1040 1800
2020-08-07 08:00 12.04 1680 4420 (1945) 19 (1978) 398 34 40 45 72 186 340 478 1040 1800
2020-08-07 07:00 12.05 1690 4420 (1945) 19 (1978) 398 34 40 45 72 186 340 478 1040 1800
2020-08-07 06:00 12.02 1680 4420 (1945) 19 (1978) 398 34 40 45 72 186 340 478 1040 1800
2020-08-07 05:00 12.02 1680 4420 (1945) 19 (1978) 398 34 40 45 72 186 340 478 1040 1800
2020-08-07 04:00 12.02 1680 4420 (1945) 19 (1978) 398 34 40 45 72 186 340 478 1040 1800
2020-08-07 03:00 12.01 1680 4420 (1945) 19 (1978) 398 34 40 45 72 186 340 478 1040 1800
2020-08-07 02:00 12.00 1670 4420 (1945) 19 (1978) 398 34 40 45 72 186 340 478 1040 1800
2020-08-07 01:00 11.99 1670 4420 (1945) 19 (1978) 398 34 40 45 72 186 340 478 1040 1800
2020-08-07 00:00 11.97 1660 4420 (1945) 19 (1978) 398 34 40 45 72 186 340 478 1040 1800
2020-08-06 23:00 11.93 1650 4510 (1945) 30 (1947) 400 37 40 40 69 186 360 565 992 1830
2020-08-06 22:00 11.92 1650 4510 (1945) 30 (1947) 400 37 40 40 69 186 360 565 992 1830
2020-08-06 21:00 11.91 1650 4510 (1945) 30 (1947) 400 37 40 40 69 186 360 565 992 1830
2020-08-06 20:00 11.86 1630 4510 (1945) 30 (1947) 400 37 40 40 69 186 360 565 992 1830
2020-08-06 19:00 11.84 1630 4510 (1945) 30 (1947) 400 37 40 40 69 186 360 565 992 1830
2020-08-06 18:00 11.81 1620 4510 (1945) 30 (1947) 400 37 40 40 69 186 360 565 992 1830
2020-08-06 17:00 11.75 1600 4510 (1945) 30 (1947) 400 37 40 40 69 186 360 565 992 1830
2020-08-06 16:00 11.71 1590 4510 (1945) 30 (1947) 400 37 40 40 69 186 360 565 992 1830
2020-08-06 15:00 11.66 1580 4510 (1945) 30 (1947) 400 37 40 40 69 186 360 565 992 1830
2020-08-06 14:00 11.59 1560 4510 (1945) 30 (1947) 400 37 40 40 69 186 360 565 992 1830
2020-08-06 13:00 11.52 1540 4510 (1945) 30 (1947) 400 37 40 40 69 186 360 565 992 1830
2020-08-06 12:00 11.42 1520 4510 (1945) 30 (1947) 400 37 40 40 69 186 360 565 992 1830
2020-08-06 11:00 11.30 1490 4510 (1945) 30 (1947) 400 37 40 40 69 186 360 565 992 1830
2020-08-06 10:00 11.14 1440 4510 (1945) 30 (1947) 400 37 40 40 69 186 360 565 992 1830
2020-08-06 09:00 10.88 1380 4510 (1945) 30 (1947) 400 37 40 40 69 186 360 565 992 1830
2020-08-06 08:00 10.71 1330 4510 (1945) 30 (1947) 400 37 40 40 69 186 360 565 992 1830
2020-08-06 07:00 10.70 1330 4510 (1945) 30 (1947) 400 37 40 40 69 186 360 565 992 1830
2020-08-06 06:00 10.69 1330 4510 (1945) 30 (1947) 400 37 40 40 69 186 360 565 992 1830
2020-08-06 05:00 10.67 1320 4510 (1945) 30 (1947) 400 37 40 40 69 186 360 565 992 1830
2020-08-06 04:00 10.65 1320 4510 (1945) 30 (1947) 400 37 40 40 69 186 360 565 992 1830
2020-08-06 03:00 10.63 1310 4510 (1945) 30 (1947) 400 37 40 40 69 186 360 565 992 1830
2020-08-06 02:00 10.60 1310 4510 (1945) 30 (1947) 400 37 40 40 69 186 360 565 992 1830
2020-08-06 01:00 10.57 1300 4510 (1945) 30 (1947) 400 37 40 40 69 186 360 565 992 1830
2020-08-06 00:00 10.54 1290 4510 (1945) 30 (1947) 400 37 40 40 69 186 360 565 992 1830

A total of 37 rows are displayed for years 1942 through 2019.